createdAt,value
2019-02-17T09:16:15.379Z,58.71
2019-02-17T09:18:45.770Z,58.32
2019-02-17T09:21:35.852Z,58.26
2019-02-17T09:24:16.446Z,58.71
2019-02-17T09:27:25.093Z,58.24
2019-02-17T09:30:09.492Z,56.88
2019-02-17T09:35:45.103Z,58.78
2019-02-17T09:41:39.525Z,57.35
2019-02-17T09:47:39.750Z,57.64
2019-02-17T09:50:48.335Z,55.76
2019-02-17T09:53:29.065Z,58.02
2019-02-17T09:59:38.608Z,55.24
2019-02-17T10:02:28.109Z,54.62
2019-02-17T10:05:09.665Z,53.01
2019-02-17T10:08:18.952Z,51.27
2019-02-17T10:10:59.291Z,51.22
2019-02-17T10:13:30.070Z,49.84
2019-02-17T10:16:00.637Z,49.54
2019-02-17T10:18:30.961Z,48.31
2019-02-17T10:21:01.653Z,47.64
2019-02-17T10:23:32.140Z,47.56
2019-02-17T10:26:02.919Z,47.97
2019-02-17T10:28:42.101Z,47.73
2019-02-17T10:31:06.007Z,47.12
2019-02-17T10:33:36.724Z,45.21
2019-02-17T10:36:07.141Z,45.29
2019-02-17T10:38:37.617Z,45.99
2019-02-17T10:41:07.968Z,46.36
2019-02-17T10:43:38.515Z,47.44
2019-02-17T10:46:09.025Z,45.81
2019-02-17T10:48:39.722Z,44.83
2019-02-17T10:51:10.182Z,47.12
2019-02-17T10:53:40.629Z,45.32
2019-02-17T10:56:11.354Z,46.77
2019-02-17T10:58:41.988Z,45.74
2019-02-17T11:01:12.410Z,46.01
2019-02-17T11:04:01.103Z,45.53
2019-02-17T11:06:31.580Z,44.31
2019-02-17T11:09:02.035Z,45.15
2019-02-17T11:11:32.795Z,45.05
2019-02-17T11:14:03.599Z,45.41
2019-02-17T11:16:34.376Z,44.00
2019-02-17T11:19:04.909Z,42.58
2019-02-17T11:21:35.707Z,42.27
2019-02-17T11:24:06.165Z,41.40
2019-02-17T11:26:36.599Z,41.35
2019-02-17T11:29:07.573Z,41.35
2019-02-17T11:31:38.011Z,42.02
2019-02-17T11:34:08.604Z,40.61
2019-02-17T11:36:39.153Z,40.38
2019-02-17T11:39:28.049Z,41.29
2019-02-17T11:41:58.534Z,41.79
2019-02-17T11:44:29.035Z,41.13
2019-02-17T11:46:59.544Z,40.07
2019-02-17T11:49:30.056Z,39.19
2019-02-17T11:52:00.802Z,39.22
2019-02-17T11:54:31.386Z,39.22
2019-02-17T11:57:01.918Z,39.58
2019-02-17T11:59:32.542Z,40.70
2019-02-17T12:02:03.425Z,38.62
2019-02-17T12:04:34.110Z,39.73
2019-02-17T12:07:04.583Z,37.36
2019-02-17T12:09:35.601Z,39.34
2019-02-17T12:12:06.415Z,37.06
2019-02-17T12:14:37.193Z,37.22
2019-02-17T12:17:08.369Z,37.16
2019-02-17T12:19:39.230Z,36.85
2019-02-17T12:22:25.175Z,37.29
2019-02-17T12:25:08.775Z,37.29
2019-02-17T12:28:07.302Z,37.15
2019-02-17T12:30:40.142Z,36.74
2019-02-17T12:33:18.436Z,37.69
2019-02-17T12:35:43.601Z,37.34
2019-02-17T12:38:14.143Z,36.04
2019-02-17T12:40:44.987Z,35.26
2019-02-17T12:43:15.271Z,36.21
2019-02-17T12:45:46.333Z,37.68
2019-02-17T12:48:16.871Z,37.68
2019-02-17T12:50:47.664Z,37.11
2019-02-17T12:53:20.947Z,36.51
2019-02-17T12:55:51.502Z,36.56
2019-02-17T12:58:29.695Z,36.03
2019-02-17T13:00:54.512Z,36.09
2019-02-17T13:03:28.480Z,36.45
2019-02-17T13:05:57.606Z,37.97
2019-02-17T13:08:28.261Z,36.58
2019-02-17T13:10:59.194Z,36.34
2019-02-17T13:13:30.323Z,35.52
2019-02-17T13:16:01.207Z,36.24
2019-02-17T13:18:31.777Z,36.47
2019-02-17T13:21:02.342Z,36.38
2019-02-17T13:23:32.980Z,35.55
2019-02-17T13:26:03.795Z,35.06
2019-02-17T13:28:34.321Z,35.50
2019-02-17T13:31:04.954Z,34.87
2019-02-17T13:33:39.238Z,34.67
2019-02-17T13:36:08.090Z,33.59
2019-02-17T13:38:38.697Z,33.79
2019-02-17T13:41:09.113Z,33.45
2019-02-17T13:43:39.543Z,33.88
2019-02-17T13:46:10.039Z,34.43
2019-02-17T13:48:40.566Z,33.96
2019-02-17T13:51:10.910Z,34.38
2019-02-17T13:53:41.458Z,33.72
2019-02-17T13:56:11.907Z,33.92
2019-02-17T13:58:42.197Z,34.29
2019-02-17T14:01:12.681Z,33.58
2019-02-17T14:03:48.808Z,33.79
2019-02-17T14:06:15.261Z,34.21
2019-02-17T14:08:45.742Z,33.41
2019-02-17T14:11:16.348Z,33.53
2019-02-17T14:13:46.865Z,33.94
2019-02-17T14:16:17.380Z,33.58
2019-02-17T14:18:47.751Z,33.26
2019-02-17T14:21:18.392Z,34.38
2019-02-17T14:23:48.733Z,34.06
2019-02-17T14:26:19.429Z,34.29
2019-02-17T14:28:49.753Z,34.33
2019-02-17T14:31:20.257Z,33.94
2019-02-17T14:33:58.397Z,34.08
2019-02-17T14:36:22.860Z,34.06
2019-02-17T14:38:53.642Z,34.07
2019-02-17T14:41:24.109Z,33.72
2019-02-17T14:43:54.803Z,34.04
2019-02-17T14:46:25.184Z,33.93
2019-02-17T14:48:55.855Z,34.06
2019-02-17T14:51:26.298Z,34.49
2019-02-17T14:53:57.220Z,34.53
2019-02-17T14:56:29.394Z,34.26
2019-02-17T14:58:59.903Z,35.40
2019-02-17T15:01:30.190Z,34.34
2019-02-17T15:04:08.371Z,34.28
2019-02-17T15:06:33.036Z,34.21
2019-02-17T15:09:05.210Z,34.83
2019-02-17T15:11:35.575Z,34.34
2019-02-17T15:14:06.062Z,34.93
2019-02-17T15:16:36.512Z,35.09
2019-02-17T15:19:07.074Z,35.53
2019-02-17T15:21:37.613Z,35.18
2019-02-17T15:24:08.125Z,34.86
2019-02-17T15:26:38.555Z,35.36
2019-02-17T15:29:09.174Z,35.49
2019-02-17T15:31:39.427Z,35.43
2019-02-17T15:34:18.390Z,35.28
2019-02-17T15:36:42.184Z,35.60
2019-02-17T15:39:12.530Z,35.83
2019-02-17T15:41:42.995Z,36.25
2019-02-17T15:44:13.384Z,36.17
2019-02-17T15:46:43.870Z,36.09
2019-02-17T15:49:14.292Z,35.94
2019-02-17T15:51:44.666Z,36.50
2019-02-17T15:54:15.198Z,36.03
2019-02-17T15:56:45.787Z,36.59
2019-02-17T15:59:16.251Z,36.73
2019-02-17T16:01:46.664Z,36.31
2019-02-17T16:04:16.936Z,36.51
2019-02-17T16:06:47.314Z,36.54
2019-02-17T16:09:18.036Z,36.63
2019-02-17T16:11:48.308Z,36.97
2019-02-17T16:14:18.818Z,36.68
2019-02-17T16:16:49.584Z,36.74
2019-02-17T16:19:20.086Z,37.17
2019-02-17T16:21:50.556Z,37.12
2019-02-17T16:24:20.891Z,37.81
2019-02-17T16:26:51.415Z,37.13
2019-02-17T16:29:21.719Z,37.39
2019-02-17T16:31:52.609Z,37.48
2019-02-17T16:34:22.976Z,37.72
2019-02-17T16:36:53.507Z,38.10
2019-02-17T16:39:24.044Z,38.09
2019-02-17T16:41:54.460Z,38.10
2019-02-17T16:44:24.816Z,38.22
2019-02-17T16:46:55.195Z,38.82
2019-02-17T16:49:25.645Z,39.37
2019-02-17T16:51:56.020Z,39.75
2019-02-17T16:54:26.357Z,39.57
2019-02-17T16:56:56.808Z,39.68
2019-02-17T16:59:27.196Z,40.45
2019-02-17T17:01:57.826Z,39.92
2019-02-17T17:04:28.223Z,40.29
2019-02-17T17:07:00.982Z,40.37
2019-02-17T17:09:31.096Z,40.58
2019-02-17T17:12:01.567Z,40.75
2019-02-17T17:14:31.883Z,41.25
2019-02-17T17:17:02.600Z,41.40
2019-02-17T17:19:33.074Z,41.72
2019-02-17T17:22:03.986Z,41.89
2019-02-17T17:24:34.447Z,43.35
2019-02-17T17:27:04.900Z,42.10
2019-02-17T17:29:35.309Z,42.46
2019-02-17T17:32:05.928Z,42.59
2019-02-17T17:34:36.308Z,42.81
2019-02-17T17:37:06.659Z,43.00
2019-02-17T17:39:37.180Z,43.44
2019-02-17T17:42:08.354Z,43.77
2019-02-17T17:44:39.246Z,43.72
2019-02-17T17:47:11.356Z,44.00
2019-02-17T17:49:43.205Z,43.84
2019-02-17T17:52:13.885Z,44.47
2019-02-17T17:54:44.421Z,44.16
2019-02-17T17:57:15.324Z,43.97
2019-02-17T17:59:45.704Z,44.18
2019-02-17T18:02:16.487Z,44.42
2019-02-17T18:04:50.173Z,44.55
2019-02-17T18:07:20.746Z,44.73
2019-02-17T18:09:51.433Z,45.59
2019-02-17T18:12:22.065Z,44.85
2019-02-17T18:14:52.472Z,45.32
2019-02-17T18:17:23.093Z,45.28
2019-02-17T18:19:53.693Z,45.54
2019-02-17T18:22:24.164Z,45.56
2019-02-17T18:24:54.581Z,45.52
2019-02-17T18:27:25.158Z,45.86
2019-02-17T18:29:55.498Z,46.07
2019-02-17T18:32:25.853Z,46.36
2019-02-17T18:34:56.302Z,46.24
2019-02-17T18:37:26.757Z,46.35
2019-02-17T18:39:57.843Z,46.39
2019-02-17T18:42:28.870Z,47.00
2019-02-17T18:44:59.936Z,46.59
2019-02-17T18:47:33.969Z,46.80
2019-02-17T18:50:05.520Z,47.09
2019-02-17T18:52:36.037Z,47.37
2019-02-17T18:55:07.034Z,47.52
2019-02-17T18:57:37.429Z,47.84
2019-02-17T19:00:10.813Z,48.13
2019-02-17T19:02:41.283Z,48.26
2019-02-17T19:05:12.322Z,48.44
2019-02-17T19:07:43.059Z,48.61
2019-02-17T19:10:14.194Z,48.81
2019-02-17T19:12:44.707Z,48.93
2019-02-17T19:15:15.426Z,49.54
2019-02-17T19:17:46.398Z,49.34
2019-02-17T19:20:19.282Z,49.74
2019-02-17T19:22:50.010Z,50.12
2019-02-17T19:25:20.502Z,50.09
2019-02-17T19:27:50.992Z,50.13
2019-02-17T19:30:27.126Z,50.36
2019-02-17T19:32:57.526Z,50.69
2019-02-17T19:35:28.107Z,51.54
2019-02-17T19:37:58.578Z,50.92
2019-02-17T19:40:28.987Z,51.22
2019-02-17T19:43:03.587Z,51.05
2019-02-17T19:45:34.242Z,51.41
2019-02-17T19:48:04.689Z,51.39
2019-02-17T19:50:38.628Z,52.47
2019-02-17T19:53:10.164Z,52.15
2019-02-17T19:55:40.961Z,51.94
2019-02-17T19:58:11.516Z,52.17
2019-02-17T20:00:41.979Z,52.61
2019-02-17T20:03:40.389Z,52.97
2019-02-17T20:06:12.211Z,52.17
2019-02-17T20:08:45.789Z,52.40
2019-02-17T20:11:16.077Z,52.50
2019-02-17T20:13:46.585Z,53.54
2019-02-17T20:16:17.379Z,52.82
2019-02-17T20:18:48.141Z,52.92
2019-02-17T20:21:18.969Z,53.03
2019-02-17T20:23:49.476Z,53.02
2019-02-17T20:26:20.202Z,53.30
2019-02-17T20:28:51.025Z,53.71
2019-02-17T20:31:21.418Z,53.91
2019-02-17T20:33:52.084Z,53.39
2019-02-17T20:36:23.291Z,54.27
2019-02-17T20:38:53.848Z,53.59
2019-02-17T20:41:24.546Z,53.69
2019-02-17T20:43:55.984Z,53.65
2019-02-17T20:46:26.702Z,53.42
2019-02-17T20:48:57.328Z,53.27
2019-02-17T20:51:28.366Z,53.44
2019-02-17T20:53:59.556Z,53.78
2019-02-17T20:56:30.536Z,53.79
2019-02-17T20:59:02.164Z,53.86
2019-02-17T21:01:33.510Z,54.07
2019-02-17T21:04:04.343Z,54.21
2019-02-17T21:06:35.283Z,53.81
2019-02-17T21:09:08.515Z,54.26
2019-02-17T21:11:43.756Z,54.20
2019-02-17T21:14:15.300Z,53.95
2019-02-17T21:16:46.094Z,53.84
2019-02-17T21:19:17.225Z,54.40
2019-02-17T21:21:48.191Z,53.87
2019-02-17T21:24:19.689Z,54.27
2019-02-17T21:26:50.206Z,54.11
2019-02-17T21:29:20.851Z,55.49
2019-02-17T21:31:51.253Z,54.37
2019-02-17T21:34:21.803Z,54.63
2019-02-17T21:36:52.231Z,54.57
2019-02-17T21:39:22.590Z,55.34
2019-02-17T21:41:53.270Z,55.17
2019-02-17T21:44:23.924Z,55.15
2019-02-17T21:46:55.028Z,54.72
2019-02-17T21:49:25.445Z,55.06
2019-02-17T21:51:55.901Z,55.56
2019-02-17T21:54:26.592Z,54.56
2019-02-17T21:56:57.026Z,54.44
2019-02-17T21:59:27.660Z,54.55
2019-02-17T22:01:58.069Z,54.48
2019-02-17T22:04:28.382Z,54.48
2019-02-17T22:06:58.754Z,55.30
2019-02-17T22:09:29.375Z,55.25
2019-02-17T22:12:00.312Z,55.17
2019-02-17T22:14:30.723Z,54.92
2019-02-17T22:17:01.553Z,54.85
2019-02-17T22:19:32.291Z,54.57
2019-02-17T22:22:02.757Z,54.75
2019-02-17T22:24:33.491Z,54.57
2019-02-17T22:27:03.866Z,54.39
2019-02-17T22:29:34.314Z,54.42
2019-02-17T22:32:05.041Z,54.07
2019-02-17T22:34:35.472Z,53.61
2019-02-17T22:37:05.923Z,53.77
2019-02-17T22:39:36.577Z,53.84
2019-02-17T22:42:07.012Z,53.66
2019-02-17T22:44:37.531Z,53.14
2019-02-17T22:47:08.137Z,54.04
2019-02-17T22:49:38.492Z,53.03
2019-02-17T22:52:09.048Z,53.25
2019-02-17T22:54:39.455Z,52.93
2019-02-17T22:57:09.890Z,52.81
2019-02-17T22:59:40.546Z,52.92
2019-02-17T23:02:12.031Z,52.65
2019-02-17T23:04:42.984Z,53.00
2019-02-17T23:07:13.475Z,52.90
2019-02-17T23:09:44.098Z,52.89
2019-02-17T23:12:14.570Z,52.82
2019-02-17T23:14:44.974Z,52.90
2019-02-17T23:17:15.392Z,53.07
2019-02-17T23:19:45.821Z,52.90
2019-02-17T23:22:16.283Z,53.06
2019-02-17T23:24:46.834Z,53.37
2019-02-17T23:27:17.194Z,53.53
2019-02-17T23:29:47.672Z,53.13
2019-02-17T23:32:18.100Z,53.09
2019-02-17T23:34:48.442Z,53.40
2019-02-17T23:37:18.891Z,53.80
2019-02-17T23:39:49.735Z,54.12
2019-02-17T23:42:20.169Z,53.95
2019-02-17T23:44:51.086Z,54.10
2019-02-17T23:47:21.537Z,54.20
2019-02-17T23:49:51.890Z,54.39
2019-02-17T23:52:22.238Z,54.47
2019-02-17T23:54:52.671Z,54.58
2019-02-17T23:57:23.047Z,54.94
2019-02-17T23:59:53.623Z,54.93
